createdAt,value
2023-05-24T00:02:14.045Z,99192.28
2023-05-24T00:04:41.776Z,99196.59
2023-05-24T00:07:08.581Z,99198.22
2023-05-24T00:09:35.280Z,99207.41
2023-05-24T00:12:02.196Z,99205.78
2023-05-24T00:14:28.893Z,99207.13
2023-05-24T00:16:55.768Z,99201.97
2023-05-24T00:19:22.794Z,99199.28
2023-05-24T00:21:49.963Z,99210.38
2023-05-24T00:24:17.371Z,99207.94
2023-05-24T00:26:44.487Z,99221.44
2023-05-24T00:29:11.527Z,99223.63
2023-05-24T00:31:38.676Z,99228.97
2023-05-24T00:34:05.507Z,99231.94
2023-05-24T00:36:33.063Z,99236.53
2023-05-24T00:38:59.861Z,99226.81
2023-05-24T00:41:26.911Z,99237.34
2023-05-24T00:43:53.632Z,99231.94
2023-05-24T00:46:23.007Z,99234.38
2023-05-24T00:48:50.573Z,99246.25
2023-05-24T00:51:17.720Z,99238.91
2023-05-24T00:53:46.402Z,99228.38
2023-05-24T00:56:13.706Z,99239.19
2023-05-24T00:58:40.820Z,99227.53
2023-05-24T01:01:08.248Z,99215.97
2023-05-24T01:03:35.696Z,99228.09
2023-05-24T01:06:06.223Z,99224.84
2023-05-24T01:08:39.146Z,99232.41
2023-05-24T01:11:27.616Z,99219.97
2023-05-24T01:14:17.841Z,99224.25
2023-05-24T01:16:51.734Z,99229.63
2023-05-24T01:19:37.274Z,99231.25
2023-05-24T01:22:25.766Z,99238.75
2023-05-24T01:25:09.259Z,99231.44
2023-05-24T01:27:37.594Z,99231.22
2023-05-24T01:30:05.160Z,99233.34
2023-05-24T01:32:32.046Z,99225.53
2023-05-24T01:34:58.688Z,99225.19
2023-05-24T01:37:26.358Z,99217.84
2023-05-24T01:39:53.102Z,99209.72
2023-05-24T01:42:25.283Z,99219.16
2023-05-24T01:44:58.005Z,99213.44
2023-05-24T01:47:27.424Z,99213.94
2023-05-24T01:50:00.263Z,99217.16
2023-05-24T01:52:29.326Z,99218.47
2023-05-24T01:54:57.113Z,99211.91
2023-05-24T01:57:25.104Z,99216.25
2023-05-24T01:59:52.335Z,99218.78
2023-05-24T02:02:19.336Z,99204.59
2023-05-24T02:04:47.025Z,99217.00
2023-05-24T02:07:13.667Z,99217.75
2023-05-24T02:09:40.461Z,99214.13
2023-05-24T02:12:07.790Z,99211.38
2023-05-24T02:14:37.963Z,99217.78
2023-05-24T02:17:06.040Z,99228.34
2023-05-24T02:19:34.607Z,99226.94
2023-05-24T02:22:01.332Z,99226.13
2023-05-24T02:24:27.938Z,99233.91
2023-05-24T02:26:56.037Z,99238.38
2023-05-24T02:29:23.135Z,99236.56
2023-05-24T02:31:54.955Z,99239.84
2023-05-24T02:34:23.403Z,99242.25
2023-05-24T02:36:50.994Z,99243.19
2023-05-24T02:39:17.795Z,99248.41
2023-05-24T02:41:44.437Z,99251.31
2023-05-24T02:44:11.804Z,99247.69
2023-05-24T02:46:38.491Z,99260.81
2023-05-24T02:49:05.273Z,99254.91
2023-05-24T02:51:32.690Z,99258.25
2023-05-24T02:53:59.335Z,99263.41
2023-05-24T02:56:26.640Z,99268.81
2023-05-24T02:58:54.284Z,99271.06
2023-05-24T03:01:21.850Z,99281.41
2023-05-24T03:03:49.538Z,99276.19
2023-05-24T03:06:16.403Z,99275.88
2023-05-24T03:08:43.095Z,99276.47
2023-05-24T03:11:09.877Z,99269.38
2023-05-24T03:13:36.563Z,99274.53
2023-05-24T03:16:03.313Z,99280.25
2023-05-24T03:18:30.168Z,99281.25
2023-05-24T03:20:56.835Z,99285.75
2023-05-24T03:23:23.450Z,99275.94
2023-05-24T03:25:50.116Z,99271.03
2023-05-24T03:28:16.790Z,99269.81
2023-05-24T03:30:44.195Z,99267.75
2023-05-24T03:33:11.055Z,99264.00
2023-05-24T03:35:37.706Z,99254.53
2023-05-24T03:38:04.343Z,99253.53
2023-05-24T03:40:34.032Z,99261.28
2023-05-24T03:43:17.595Z,99249.75
2023-05-24T03:46:05.986Z,99256.97
2023-05-24T03:48:32.666Z,99268.63
2023-05-24T03:50:59.296Z,99270.78
2023-05-24T03:53:25.948Z,99270.56
2023-05-24T03:55:52.612Z,99277.25
2023-05-24T03:58:19.249Z,99279.16
2023-05-24T04:00:45.882Z,99285.47
2023-05-24T04:03:13.446Z,99295.72
2023-05-24T04:05:40.355Z,99288.44
2023-05-24T04:08:07.682Z,99295.03
2023-05-24T04:10:37.175Z,99304.22
2023-05-24T04:13:03.815Z,99299.97
2023-05-24T04:15:31.278Z,99302.34
2023-05-24T04:17:58.017Z,99304.81
2023-05-24T04:20:25.810Z,99303.59
2023-05-24T04:22:52.673Z,99307.75
2023-05-24T04:25:19.860Z,99314.22
2023-05-24T04:27:48.771Z,99321.75
2023-05-24T04:30:18.689Z,99333.84
2023-05-24T04:32:45.437Z,99337.41
2023-05-24T04:35:12.736Z,99342.84
2023-05-24T04:37:40.509Z,99338.28
2023-05-24T04:40:08.141Z,99334.47
2023-05-24T04:42:35.506Z,99343.13
2023-05-24T04:45:02.373Z,99351.25
2023-05-24T04:47:29.065Z,99341.50
2023-05-24T04:49:55.703Z,99331.75
2023-05-24T04:52:22.705Z,99339.06
2023-05-24T04:54:49.956Z,99337.41
2023-05-24T04:57:17.081Z,99342.31
2023-05-24T04:59:44.424Z,99333.66
2023-05-24T05:02:11.236Z,99332.03
2023-05-24T05:04:38.158Z,99326.09
2023-05-24T05:07:04.862Z,99336.59
2023-05-24T05:09:31.555Z,99338.72
2023-05-24T05:11:58.515Z,99337.09
2023-05-24T05:14:25.402Z,99337.69
2023-05-24T05:16:52.120Z,99336.63
2023-05-24T05:19:18.981Z,99338.28
2023-05-24T05:21:45.905Z,99333.91
2023-05-24T05:24:12.687Z,99343.97
2023-05-24T05:26:39.312Z,99355.31
2023-05-24T05:29:05.927Z,99342.31
2023-05-24T05:31:32.623Z,99355.03
2023-05-24T05:33:59.249Z,99359.38
2023-05-24T05:36:26.077Z,99349.91
2023-05-24T05:38:52.967Z,99364.00
2023-05-24T05:41:19.614Z,99369.94
2023-05-24T05:43:46.215Z,99366.44
2023-05-24T05:46:15.245Z,99362.94
2023-05-24T05:48:42.898Z,99369.97
2023-05-24T05:51:10.505Z,99366.41
2023-05-24T05:53:37.163Z,99365.88
2023-05-24T05:56:03.912Z,99367.47
2023-05-24T05:58:30.618Z,99365.53
2023-05-24T06:00:57.229Z,99367.91
2023-05-24T06:03:24.019Z,99367.09
2023-05-24T06:05:51.111Z,99357.38
2023-05-24T06:08:17.747Z,99362.47
2023-05-24T06:10:44.561Z,99363.31
2023-05-24T06:13:11.306Z,99360.84
2023-05-24T06:15:38.073Z,99364.53
2023-05-24T06:18:05.281Z,99370.50
2023-05-24T06:20:32.034Z,99362.75
2023-05-24T06:22:59.031Z,99382.84
2023-05-24T06:25:27.572Z,99380.97
2023-05-24T06:27:54.170Z,99376.97
2023-05-24T06:30:21.014Z,99386.22
2023-05-24T06:32:47.687Z,99388.34
2023-05-24T06:35:14.321Z,99377.97
2023-05-24T06:37:40.959Z,99384.16
2023-05-24T06:40:09.678Z,99384.47
2023-05-24T06:42:37.168Z,99396.38
2023-05-24T06:45:03.995Z,99391.44
2023-05-24T06:47:30.804Z,99390.03
2023-05-24T06:49:57.940Z,99393.84
2023-05-24T06:52:24.574Z,99391.13
2023-05-24T06:54:52.158Z,99394.25
2023-05-24T06:57:18.858Z,99391.88
2023-05-24T06:59:45.475Z,99399.09
2023-05-24T07:02:12.118Z,99406.41
2023-05-24T07:04:41.242Z,99402.34
2023-05-24T07:07:12.683Z,99408.88
2023-05-24T07:09:41.425Z,99409.53
2023-05-24T07:12:09.261Z,99409.75
2023-05-24T07:14:36.220Z,99412.63
2023-05-24T07:17:02.983Z,99414.53
2023-05-24T07:19:30.071Z,99410.03
2023-05-24T07:21:56.926Z,99414.44
2023-05-24T07:24:24.229Z,99413.16
2023-05-24T07:26:52.128Z,99407.31
2023-05-24T07:29:18.869Z,99407.22
2023-05-24T07:31:45.591Z,99413.78
2023-05-24T07:34:12.301Z,99411.22
2023-05-24T07:36:40.916Z,99413.16
2023-05-24T07:39:09.962Z,99416.34
2023-05-24T07:41:37.092Z,99410.41
2023-05-24T07:44:03.774Z,99423.59
2023-05-24T07:46:30.467Z,99420.81
2023-05-24T07:48:57.088Z,99424.75
2023-05-24T07:51:23.715Z,99421.16
2023-05-24T07:53:50.373Z,99420.88
2023-05-24T07:56:17.658Z,99424.97
2023-05-24T07:58:46.690Z,99419.59
2023-05-24T08:01:13.357Z,99432.00
2023-05-24T08:03:40.058Z,99430.97
2023-05-24T08:06:06.746Z,99430.22
2023-05-24T08:08:33.650Z,99423.47
2023-05-24T08:11:00.346Z,99424.63
2023-05-24T08:13:27.065Z,99428.56
2023-05-24T08:15:53.846Z,99422.31
2023-05-24T08:18:20.448Z,99431.53
2023-05-24T08:20:47.211Z,99434.75
2023-05-24T08:23:13.863Z,99424.72
2023-05-24T08:25:41.209Z,99438.09
2023-05-24T08:28:08.688Z,99432.56
2023-05-24T08:30:35.455Z,99433.81
2023-05-24T08:33:02.181Z,99438.13
2023-05-24T08:35:28.974Z,99435.22
2023-05-24T08:37:55.741Z,99438.59
2023-05-24T08:40:24.433Z,99433.22
2023-05-24T08:42:52.433Z,99434.31
2023-05-24T08:45:21.322Z,99431.53
2023-05-24T08:47:48.828Z,99427.94
2023-05-24T08:50:15.810Z,99422.91
2023-05-24T08:52:42.686Z,99416.44
2023-05-24T08:55:09.797Z,99407.22
2023-05-24T08:57:40.010Z,99407.50
2023-05-24T09:00:13.895Z,99421.22
2023-05-24T09:02:42.340Z,99421.50
2023-05-24T09:05:16.399Z,99412.59
2023-05-24T09:07:44.752Z,99423.88
2023-05-24T09:10:11.773Z,99426.59
2023-05-24T09:12:39.715Z,99421.97
2023-05-24T09:15:07.833Z,99436.31
2023-05-24T09:17:35.579Z,99427.91
2023-05-24T09:20:04.411Z,99435.09
2023-05-24T09:22:31.182Z,99438.00
2023-05-24T09:25:01.096Z,99437.91
2023-05-24T09:27:28.052Z,99435.63
2023-05-24T09:29:55.946Z,99431.00
2023-05-24T09:32:26.251Z,99438.56
2023-05-24T09:34:53.989Z,99436.47
2023-05-24T09:37:26.918Z,99436.28
2023-05-24T09:39:56.160Z,99438.94
2023-05-24T09:42:30.227Z,99435.75
2023-05-24T09:45:07.333Z,99438.75
2023-05-24T09:47:35.106Z,99439.09
2023-05-24T09:50:02.913Z,99439.41
2023-05-24T09:52:29.683Z,99444.06
2023-05-24T09:54:56.652Z,99436.84
2023-05-24T09:57:23.668Z,99437.81
2023-05-24T09:59:50.970Z,99434.34
2023-05-24T10:02:20.401Z,99437.44
2023-05-24T10:04:47.733Z,99442.41
2023-05-24T10:07:16.284Z,99442.50
2023-05-24T10:09:44.737Z,99439.91
2023-05-24T10:12:11.569Z,99437.47
2023-05-24T10:14:39.009Z,99434.75
2023-05-24T10:17:07.063Z,99424.75
2023-05-24T10:19:34.852Z,99427.66
2023-05-24T10:22:04.383Z,99423.59
2023-05-24T10:24:39.004Z,99424.28
2023-05-24T10:27:09.061Z,99420.38
2023-05-24T10:29:51.554Z,99429.00
2023-05-24T10:32:19.072Z,99428.31
2023-05-24T10:34:45.890Z,99435.06
2023-05-24T10:37:12.662Z,99431.38
2023-05-24T10:39:39.283Z,99433.25
2023-05-24T10:42:09.398Z,99442.78
2023-05-24T10:44:37.277Z,99439.22
2023-05-24T10:47:14.556Z,99444.47
2023-05-24T10:49:52.456Z,99441.38
2023-05-24T10:52:19.531Z,99437.56
2023-05-24T10:55:08.471Z,99440.91
2023-05-24T10:57:36.792Z,99441.63
2023-05-24T11:00:34.505Z,99438.13
2023-05-24T11:03:12.659Z,99440.50
2023-05-24T11:05:50.147Z,99436.91
2023-05-24T11:08:24.149Z,99435.97
2023-05-24T11:10:51.382Z,99432.78
2023-05-24T11:13:19.005Z,99441.44
2023-05-24T11:15:51.976Z,99426.81
2023-05-24T11:18:22.587Z,99421.75
2023-05-24T11:20:49.973Z,99419.97
2023-05-24T11:23:17.130Z,99423.00
2023-05-24T11:25:47.098Z,99420.16
2023-05-24T11:28:13.953Z,99423.75
2023-05-24T11:30:41.038Z,99420.78
2023-05-24T11:33:18.800Z,99424.72
2023-05-24T11:35:52.351Z,99418.75
2023-05-24T11:38:23.519Z,99420.50
2023-05-24T11:40:51.587Z,99416.25
2023-05-24T11:43:21.952Z,99407.19
2023-05-24T11:45:49.916Z,99414.84
2023-05-24T11:48:18.145Z,99413.78
2023-05-24T11:50:49.804Z,99422.41
2023-05-24T11:53:19.251Z,99414.84
2023-05-24T11:55:46.400Z,99411.84
2023-05-24T11:58:31.708Z,99408.31
2023-05-24T12:00:58.514Z,99416.94
2023-05-24T12:03:25.294Z,99422.09
2023-05-24T12:05:52.758Z,99423.44
2023-05-24T12:08:20.403Z,99425.69
2023-05-24T12:10:48.742Z,99416.97
2023-05-24T12:13:25.761Z,99414.09
2023-05-24T12:15:56.541Z,99415.84
2023-05-24T12:18:26.003Z,99412.75
2023-05-24T12:20:53.079Z,99425.34
2023-05-24T12:23:23.290Z,99409.22
2023-05-24T12:25:50.259Z,99408.41
2023-05-24T12:28:21.675Z,99407.63
2023-05-24T12:30:49.998Z,99401.91
2023-05-24T12:33:19.538Z,99411.91
2023-05-24T12:35:47.264Z,99417.13
2023-05-24T12:38:13.880Z,99409.84
2023-05-24T12:40:44.005Z,99412.13
2023-05-24T12:43:14.844Z,99401.16
2023-05-24T12:45:41.464Z,99407.00
2023-05-24T12:48:08.770Z,99405.66
2023-05-24T12:50:35.489Z,99404.63
2023-05-24T12:53:02.112Z,99408.06
2023-05-24T12:55:29.150Z,99403.03
2023-05-24T12:57:56.730Z,99399.50
2023-05-24T13:00:28.778Z,99409.16
2023-05-24T13:02:58.671Z,99405.84
2023-05-24T13:05:26.679Z,99407.09
2023-05-24T13:07:54.536Z,99406.06
2023-05-24T13:10:21.275Z,99407.03
2023-05-24T13:12:48.092Z,99413.09
2023-05-24T13:15:15.136Z,99413.47
2023-05-24T13:17:42.723Z,99405.72
2023-05-24T13:20:11.275Z,99402.72
2023-05-24T13:22:38.990Z,99411.63
2023-05-24T13:25:07.224Z,99405.28
2023-05-24T13:27:34.573Z,99407.25
2023-05-24T13:30:01.753Z,99404.81
2023-05-24T13:32:28.791Z,99407.03
2023-05-24T13:34:55.530Z,99411.13
2023-05-24T13:37:22.267Z,99407.41
2023-05-24T13:39:50.113Z,99401.53
2023-05-24T13:42:17.174Z,99398.94
2023-05-24T13:44:43.880Z,99410.13
2023-05-24T13:47:10.509Z,99396.19
2023-05-24T13:49:37.921Z,99402.69
2023-05-24T13:52:04.766Z,99391.44
2023-05-24T13:54:32.161Z,99392.28
2023-05-24T13:56:59.595Z,99393.84
2023-05-24T13:59:27.206Z,99390.06
2023-05-24T14:01:54.050Z,99386.66
2023-05-24T14:04:20.763Z,99381.75
2023-05-24T14:06:47.336Z,99376.84
2023-05-24T14:09:15.233Z,99376.34
2023-05-24T14:11:41.965Z,99379.00
2023-05-24T14:16:38.160Z,99372.13
2023-05-24T14:19:04.793Z,99378.22
2023-05-24T14:21:32.392Z,99383.78
2023-05-24T14:23:59.140Z,99385.88
2023-05-24T14:26:25.748Z,99359.59
2023-05-24T14:28:55.261Z,99359.13
2023-05-24T14:31:23.160Z,99352.63
2023-05-24T14:33:49.906Z,99346.06
2023-05-24T14:36:16.678Z,99357.34
2023-05-24T14:38:43.258Z,99353.72
2023-05-24T14:41:10.099Z,99346.06
2023-05-24T14:43:37.908Z,99352.59
2023-05-24T14:46:04.978Z,99347.59
2023-05-24T14:48:31.653Z,99347.63
2023-05-24T14:50:58.334Z,99352.78
2023-05-24T14:53:24.989Z,99354.41
2023-05-24T14:55:53.849Z,99354.34
2023-05-24T14:58:20.652Z,99354.28
2023-05-24T15:00:47.736Z,99351.78
2023-05-24T15:03:15.001Z,99342.09
2023-05-24T15:05:42.836Z,99349.41
2023-05-24T15:08:11.288Z,99340.84
2023-05-24T15:10:41.210Z,99340.16
2023-05-24T15:13:08.168Z,99341.72
2023-05-24T15:15:34.806Z,99341.16
2023-05-24T15:18:01.516Z,99342.09
2023-05-24T15:20:28.207Z,99335.44
2023-05-24T15:22:55.002Z,99348.91
2023-05-24T15:25:22.809Z,99342.34
2023-05-24T15:27:49.504Z,99344.34
2023-05-24T15:30:17.578Z,99342.78
2023-05-24T15:32:46.161Z,99344.44
2023-05-24T15:35:12.911Z,99346.56
2023-05-24T15:37:40.041Z,99344.06
2023-05-24T15:40:11.036Z,99351.44
2023-05-24T15:42:37.724Z,99341.91
2023-05-24T15:45:04.955Z,99346.44
2023-05-24T15:47:36.411Z,99346.78
2023-05-24T15:50:03.274Z,99356.34
2023-05-24T15:52:29.999Z,99365.47
2023-05-24T15:54:56.698Z,99357.69
2023-05-24T15:57:23.314Z,99350.75
2023-05-24T15:59:49.952Z,99351.00
2023-05-24T16:02:18.704Z,99339.97
2023-05-24T16:04:47.473Z,99344.47
2023-05-24T16:07:14.136Z,99347.69
2023-05-24T16:09:40.836Z,99342.75
2023-05-24T16:12:07.812Z,99347.72
2023-05-24T16:14:34.565Z,99342.34
2023-05-24T16:17:06.481Z,99348.31
2023-05-24T16:19:33.566Z,99347.53
2023-05-24T16:22:00.357Z,99352.50
2023-05-24T16:24:27.460Z,99354.34
2023-05-24T16:26:54.147Z,99362.88
2023-05-24T16:29:21.397Z,99362.56
2023-05-24T16:31:48.305Z,99367.41
2023-05-24T16:34:15.267Z,99371.13
2023-05-24T16:36:45.747Z,99368.31
2023-05-24T16:39:12.444Z,99367.50
2023-05-24T16:41:40.346Z,99374.72
2023-05-24T16:44:07.292Z,99369.75
2023-05-24T16:46:34.693Z,99377.72
2023-05-24T16:49:03.396Z,99368.94
2023-05-24T16:51:30.348Z,99378.03
2023-05-24T16:53:56.968Z,99379.44
2023-05-24T16:56:23.711Z,99380.41
2023-05-24T16:58:50.335Z,99386.44
2023-05-24T17:01:17.014Z,99377.88
2023-05-24T17:03:43.824Z,99387.41
2023-05-24T17:06:10.467Z,99384.59
2023-05-24T17:08:37.236Z,99387.38
2023-05-24T17:11:04.988Z,99393.03
2023-05-24T17:13:31.942Z,99405.59
2023-05-24T17:16:00.056Z,99410.88
2023-05-24T17:18:29.578Z,99410.31
2023-05-24T17:21:00.752Z,99414.84
2023-05-24T17:23:32.833Z,99413.25
2023-05-24T17:26:00.803Z,99413.13
2023-05-24T17:28:27.809Z,99413.25
2023-05-24T17:30:55.925Z,99419.34
2023-05-24T17:33:23.932Z,99421.13
2023-05-24T17:35:50.795Z,99412.88
2023-05-24T17:38:17.474Z,99411.53
2023-05-24T17:40:45.240Z,99407.81
2023-05-24T17:43:11.890Z,99412.28
2023-05-24T17:45:38.717Z,99412.28
2023-05-24T17:48:06.301Z,99419.44
2023-05-24T17:50:33.108Z,99426.31
2023-05-24T17:52:59.761Z,99432.44
2023-05-24T17:55:26.981Z,99445.06
2023-05-24T17:57:53.615Z,99444.13
2023-05-24T18:00:20.685Z,99445.47
2023-05-24T18:02:47.375Z,99446.81
2023-05-24T18:05:14.517Z,99450.75
2023-05-24T18:07:41.342Z,99457.84
2023-05-24T18:10:08.371Z,99455.44
2023-05-24T18:12:35.029Z,99461.69
2023-05-24T18:15:01.699Z,99470.44
2023-05-24T18:17:28.484Z,99476.81
2023-05-24T18:19:55.299Z,99479.56
2023-05-24T18:22:21.944Z,99476.59
2023-05-24T18:24:48.544Z,99478.50
2023-05-24T18:27:15.201Z,99486.66
2023-05-24T18:29:41.896Z,99484.19
2023-05-24T18:32:08.687Z,99485.84
2023-05-24T18:34:35.430Z,99490.72
2023-05-24T18:37:02.120Z,99482.63
2023-05-24T18:39:28.736Z,99490.72
2023-05-24T18:41:55.367Z,99497.03
2023-05-24T18:44:22.091Z,99493.78
2023-05-24T18:46:49.274Z,99502.72
2023-05-24T18:49:17.627Z,99504.88
2023-05-24T18:51:44.242Z,99510.84
2023-05-24T18:54:10.916Z,99515.75
2023-05-24T18:56:37.525Z,99526.59
2023-05-24T18:59:04.190Z,99523.88
2023-05-24T19:01:30.827Z,99525.22
2023-05-24T19:03:57.676Z,99530.41
2023-05-24T19:06:24.289Z,99537.41
2023-05-24T19:08:51.174Z,99534.75
2023-05-24T19:11:17.800Z,99536.09
2023-05-24T19:13:44.417Z,99543.44
2023-05-24T19:16:17.394Z,99543.97
2023-05-24T19:18:44.900Z,99547.75
2023-05-24T19:21:12.139Z,99544.78
2023-05-24T19:23:40.601Z,99552.63
2023-05-24T19:26:07.245Z,99561.84
2023-05-24T19:28:37.693Z,99567.16
2023-05-24T19:31:04.682Z,99574.78
2023-05-24T19:33:31.320Z,99573.38
2023-05-24T19:35:57.922Z,99577.38
2023-05-24T19:38:24.546Z,99583.28
2023-05-24T19:40:51.151Z,99574.91
2023-05-24T19:43:17.801Z,99581.38
2023-05-24T19:45:44.848Z,99583.75
2023-05-24T19:48:11.895Z,99584.75
2023-05-24T19:50:39.376Z,99589.09
2023-05-24T19:53:06.026Z,99579.75
2023-05-24T19:55:32.735Z,99591.31
2023-05-24T19:57:59.505Z,99586.09
2023-05-24T20:00:26.156Z,99588.25
2023-05-24T20:02:52.855Z,99591.41
2023-05-24T20:05:19.556Z,99592.94
2023-05-24T20:07:46.401Z,99595.28
2023-05-24T20:10:13.234Z,99592.25
2023-05-24T20:12:41.064Z,99595.03
2023-05-24T20:15:08.571Z,99598.72
2023-05-24T20:17:35.445Z,99606.00
2023-05-24T20:20:02.370Z,99608.63
2023-05-24T20:22:29.056Z,99605.59
2023-05-24T20:24:55.780Z,99602.59
2023-05-24T20:27:22.396Z,99600.56
2023-05-24T20:29:49.018Z,99600.38
2023-05-24T20:32:16.388Z,99595.03
2023-05-24T20:34:43.021Z,99604.66
2023-05-24T20:37:09.645Z,99599.91
2023-05-24T20:39:36.377Z,99607.19
2023-05-24T20:42:03.061Z,99613.50
2023-05-24T20:44:29.752Z,99614.19
2023-05-24T20:46:56.548Z,99614.09
2023-05-24T20:49:24.711Z,99609.25
2023-05-24T20:51:51.417Z,99615.69
2023-05-24T20:54:18.084Z,99618.63
2023-05-24T20:56:44.768Z,99619.66
2023-05-24T20:59:11.432Z,99625.13
2023-05-24T21:01:38.176Z,99623.50
2023-05-24T21:04:05.219Z,99624.31
2023-05-24T21:06:34.083Z,99634.66
2023-05-24T21:09:06.312Z,99632.19
2023-05-24T21:11:33.136Z,99634.97
2023-05-24T21:13:59.765Z,99633.50
2023-05-24T21:16:26.492Z,99644.72
2023-05-24T21:18:53.318Z,99637.38
2023-05-24T21:21:20.037Z,99638.44
2023-05-24T21:23:46.667Z,99649.63
2023-05-24T21:26:13.354Z,99650.59
2023-05-24T21:28:40.008Z,99642.19
2023-05-24T21:31:07.028Z,99638.34
2023-05-24T21:33:33.683Z,99650.09
2023-05-24T21:36:00.472Z,99652.69
2023-05-24T21:38:30.034Z,99653.72
2023-05-24T21:40:58.797Z,99654.19
2023-05-24T21:43:25.488Z,99665.59
2023-05-24T21:45:52.181Z,99669.66
2023-05-24T21:48:18.800Z,99672.72
2023-05-24T21:50:45.493Z,99670.53
2023-05-24T21:53:12.103Z,99683.38
2023-05-24T21:55:38.727Z,99686.91
2023-05-24T21:58:05.382Z,99685.16
2023-05-24T22:00:32.350Z,99677.66
2023-05-24T22:03:00.489Z,99679.22
2023-05-24T22:05:28.024Z,99674.94
2023-05-24T22:07:56.104Z,99682.22
2023-05-24T22:10:22.899Z,99680.31
2023-05-24T22:12:49.698Z,99690.38
2023-05-24T22:15:16.749Z,99677.69
2023-05-24T22:17:43.514Z,99676.28
2023-05-24T22:20:11.087Z,99689.41
2023-05-24T22:22:40.600Z,99684.56
2023-05-24T22:25:08.761Z,99688.88
2023-05-24T22:27:35.950Z,99689.22
2023-05-24T22:30:02.692Z,99683.25
2023-05-24T22:32:29.445Z,99686.31
2023-05-24T22:34:56.115Z,99684.91
2023-05-24T22:37:22.925Z,99676.41
2023-05-24T22:39:49.921Z,99675.84
2023-05-24T22:42:21.562Z,99682.66
2023-05-24T22:44:51.592Z,99688.31
2023-05-24T22:47:22.382Z,99692.44
2023-05-24T22:49:54.799Z,99691.78
2023-05-24T22:52:21.695Z,99691.53
2023-05-24T22:54:50.313Z,99694.19
2023-05-24T22:57:21.619Z,99694.13
2023-05-24T22:59:49.516Z,99694.25
2023-05-24T23:02:19.964Z,99693.41
2023-05-24T23:04:49.503Z,99694.81
2023-05-24T23:07:16.561Z,99699.03
2023-05-24T23:09:44.017Z,99701.97
2023-05-24T23:12:11.604Z,99703.03
2023-05-24T23:14:39.426Z,99704.88
2023-05-24T23:17:07.210Z,99702.31
2023-05-24T23:19:35.211Z,99700.41
2023-05-24T23:22:03.645Z,99700.81
2023-05-24T23:24:31.697Z,99706.28
2023-05-24T23:26:58.369Z,99700.91
2023-05-24T23:29:25.534Z,99701.00
2023-05-24T23:31:52.254Z,99712.38
2023-05-24T23:34:18.930Z,99711.53
2023-05-24T23:36:45.788Z,99717.50
2023-05-24T23:39:13.109Z,99709.75
2023-05-24T23:41:39.715Z,99714.91
2023-05-24T23:44:06.579Z,99702.28
2023-05-24T23:46:33.274Z,99703.22
2023-05-24T23:49:00.143Z,99706.38
2023-05-24T23:51:26.812Z,99708.59
2023-05-24T23:53:53.470Z,99707.66
2023-05-24T23:56:20.096Z,99710.81
2023-05-24T23:58:48.420Z,99713.50
